< Typhoon 202116 2021 Season Typhoon 202118 >
Typhoon 202117 (LIONROCK)
General InformationTrack Information on Google MapsDetailed Wind InformationForecast History on Google MapsAccess Analytics MapList of All Images || NewsDisaster Info.WeblogTrackbackTyphoon FrontTwiphoonTyphoon Now!Typhoon ImaginationJMA Disaster Info. XMLResourceGoogle EarthGE AnimationAtom FeedGeoJSON
Detalied Best Track (Time Zone = UTC)
Year Month Day Hour Lat. Long. Pressure (hPa) Wind (kt) Class Image Chart
2021 10 5 00 11.6 119.0 1004 0 2 Image Chart
2021 10 5 06 12.4 117.7 1002 0 2 Image Chart
2021 10 5 12 13.3 116.3 1002 0 2 Image Chart
2021 10 5 18 14.1 115.2 1002 0 2 Image Chart
2021 10 6 00 14.6 114.4 1000 0 2 Image Chart
2021 10 6 06 15.1 113.8 1000 0 2 Image Chart
2021 10 6 12 15.6 113.2 998 0 2 Image Chart
2021 10 6 18 16.0 112.7 998 0 2 Image Chart
2021 10 7 00 16.6 112.1 998 0 2 Image Chart
2021 10 7 06 16.9 111.8 996 0 2 Image Chart
2021 10 7 12 17.2 111.4 996 0 2 Image Chart
2021 10 7 18 17.3 110.9 994 35 3 Image Chart
2021 10 8 00 17.6 110.8 994 35 3 Image Chart
2021 10 8 06 18.5 110.7 994 35 3 Image Chart
2021 10 8 12 19.0 110.6 994 35 3 Image Chart
2021 10 8 18 19.4 110.2 994 35 3 Image Chart
2021 10 9 00 19.7 110.1 994 35 3 Image Chart
2021 10 9 06 20.0 109.9 994 35 3 Image Chart
2021 10 9 12 20.3 109.6 994 35 3 Image Chart
2021 10 9 18 20.7 108.7 996 35 3 Image Chart
2021 10 10 00 20.9 107.9 998 35 3 Image Chart
2021 10 10 06 20.8 106.9 1000 0 2 Image Chart
2021 10 10 12 20.7 106.3 1002 0 2 Image Chart
2021 10 10 18 20.6 105.4 1004 0 2 Image Chart
Japan Meteorological Agency Best Track Data | Correction Date : 2022-01-06
< Typhoon 202116 2021 Season Typhoon 202118 >

Help